Terminal Aerodrome Forecast
Issued by NWS

Home | Current Version | Previous Version | Text Only | Print | Product List | Glossary On
Versions: 1 2 3 4 5 6 7 8 9 10 11 12 13 14 15 16 17 18 19 20
000
FTUS44 KSJT 191600 AAD
TAFSOA
TAF AMD
KSOA 191630Z 1917/2012 VRB04KT P6SM BKN010
     FM191700 13005KT P6SM BKN015
     FM191900 14007KT P6SM VCSH SCT025 BKN035
     FM192100 14007KT P6SM BKN040
     FM200900 16004KT 6SM BR BKN015=

USA.gov is the U.S. government's official web portal to all federal, state and local government web resources and services.